Time;durP1;ratioP1;P1;durP2;ratioP2;P2;SDS_P1;SDS_P2;PMS_P1;PMS_P2;Temp;Humidity;BMP_temperature;BMP_pressure;BME280_temperature;BME280_humidity;BME280_pressure;Samples;Min_cycle;Max_cycle;Signal;HPM_P1;HPM_P2
2022/03/17 00:00:16;;;;;;;35.33;18.02;;;11.90;93.30;;;;;;5098668;28;20378;-76
2022/03/17 00:02:43;;;;;;;33.35;18.35;;;11.80;93.30;;;;;;5116355;28;20090;-76
2022/03/17 00:05:10;;;;;;;32.28;17.73;;;11.80;93.50;;;;;;5116356;28;20478;-76
2022/03/17 00:07:41;;;;;;;34.85;18.10;;;11.90;93.50;;;;;;5116290;28;20047;-76
2022/03/17 00:10:10;;;;;;;34.15;18.38;;;11.90;93.40;;;;;;5116463;28;20043;-76
2022/03/17 00:12:36;;;;;;;35.88;19.35;;;11.80;93.50;;;;;;5116195;28;20046;-76
2022/03/17 00:15:04;;;;;;;32.55;18.48;;;11.80;93.60;;;;;;5115904;28;20047;-76
2022/03/17 00:17:30;;;;;;;34.17;19.23;;;11.80;93.50;;;;;;5099270;28;20039;-76
2022/03/17 00:19:56;;;;;;;33.25;18.48;;;11.80;93.50;;;;;;5116391;28;20043;-76
2022/03/17 00:22:21;;;;;;;34.78;19.20;;;11.80;93.50;;;;;;5098684;28;20420;-76
2022/03/17 00:24:47;;;;;;;34.03;18.05;;;11.80;93.50;;;;;;5116087;28;20537;-76
2022/03/17 00:27:13;;;;;;;36.85;18.17;;;11.80;93.50;;;;;;5118071;27;20074;-76
2022/03/17 00:29:40;;;;;;;33.85;18.50;;;11.70;93.60;;;;;;5119749;27;20039;-76
2022/03/17 00:32:07;;;;;;;34.70;18.80;;;11.80;93.60;;;;;;5119488;27;20126;-76
2022/03/17 00:37:23;;;;;;;35.78;19.35;;;11.70;93.60;;;;;;5119689;27;20058;-76
2022/03/17 00:39:49;;;;;;;34.25;19.35;;;11.60;93.70;;;;;;5119556;27;20062;-76
2022/03/17 00:42:15;;;;;;;37.25;19.17;;;11.50;93.80;;;;;;5102842;27;20051;-76
2022/03/17 00:44:41;;;;;;;36.42;19.67;;;11.40;93.90;;;;;;5102324;27;20054;-76
2022/03/17 00:47:07;;;;;;;36.08;18.92;;;11.50;94.00;;;;;;5119430;27;20169;-76
2022/03/17 00:49:33;;;;;;;40.40;20.48;;;11.50;93.90;;;;;;5119197;27;20122;-76
2022/03/17 00:51:59;;;;;;;36.05;20.40;;;11.60;93.90;;;;;;5118755;27;20389;-76
2022/03/17 00:54:26;;;;;;;41.55;20.38;;;11.60;93.80;;;;;;5118978;27;20482;-76
2022/03/17 00:56:52;;;;;;;36.38;19.48;;;11.60;93.90;;;;;;5119274;27;20058;-76
2022/03/17 00:59:18;;;;;;;35.75;19.85;;;11.50;94.00;;;;;;5098425;28;20047;-76
2022/03/17 01:01:44;;;;;;;33.50;18.80;;;11.50;94.00;;;;;;5115727;28;20070;-76
2022/03/17 01:04:10;;;;;;;34.60;19.45;;;11.40;94.10;;;;;;5098748;28;20044;-76
2022/03/17 01:06:35;;;;;;;33.78;18.80;;;11.40;94.10;;;;;;5115491;28;20050;-77
2022/03/17 01:09:01;;;;;;;33.20;18.70;;;11.40;94.10;;;;;;5098675;28;20040;-76
2022/03/17 01:11:27;;;;;;;33.70;19.20;;;11.30;94.20;;;;;;5115485;28;20071;-77
2022/03/17 01:13:53;;;;;;;35.83;20.45;;;11.30;94.30;;;;;;5098765;28;20079;-77
2022/03/17 01:16:18;;;;;;;37.50;20.17;;;11.40;94.30;;;;;;5098412;28;20126;-77
2022/03/17 01:18:44;;;;;;;35.00;18.15;;;11.40;94.20;;;;;;5115321;28;20042;-76
2022/03/17 01:21:10;;;;;;;35.63;19.33;;;11.40;94.30;;;;;;5114927;28;20522;-76
2022/03/17 01:23:36;;;;;;;36.65;19.80;;;11.50;94.10;;;;;;5115296;28;20052;-76
2022/03/17 01:26:02;;;;;;;37.92;19.90;;;11.60;94.20;;;;;;5098345;28;20067;-77
2022/03/17 01:28:28;;;;;;;37.15;19.25;;;11.60;94.10;;;;;;5115253;28;20487;-76
2022/03/17 01:30:54;;;;;;;34.20;18.75;;;11.60;94.00;;;;;;5115159;28;20127;-76
2022/03/17 01:33:20;;;;;;;36.35;19.10;;;11.50;94.20;;;;;;5098100;28;20130;-76
2022/03/17 01:35:45;;;;;;;38.05;20.25;;;11.40;94.20;;;;;;5097824;28;20122;-76
2022/03/17 01:38:11;;;;;;;37.65;20.80;;;11.40;94.20;;;;;;5114147;28;20040;-77
2022/03/17 01:40:37;;;;;;;35.05;19.23;;;11.50;94.20;;;;;;5114940;28;20089;-77
2022/03/17 01:43:03;;;;;;;34.13;19.33;;;11.30;94.20;;;;;;5097874;28;20064;-78
2022/03/17 01:45:29;;;;;;;45.10;21.27;;;11.20;94.30;;;;;;5098051;28;20047;-76
2022/03/17 01:47:55;;;;;;;36.58;20.50;;;11.20;94.50;;;;;;5097724;28;20478;-77
2022/03/17 01:50:21;;;;;;;39.40;19.90;;;11.30;94.50;;;;;;5097916;28;20138;-76
2022/03/17 01:52:47;;;;;;;39.00;20.77;;;11.40;94.50;;;;;;5114031;28;20078;-76
2022/03/17 01:55:17;;;;;;;36.67;20.30;;;11.30;94.30;;;;;;5114401;28;20043;-76
2022/03/17 01:57:43;;;;;;;42.10;21.40;;;11.30;94.40;;;;;;5081092;28;20044;-77
2022/03/17 02:00:14;;;;;;;39.05;19.55;;;11.20;94.50;;;;;;5114381;28;20062;-76
2022/03/17 02:02:45;;;;;;;38.63;20.23;;;11.40;94.50;;;;;;5098477;28;20097;-76
2022/03/17 02:05:11;;;;;;;41.13;20.30;;;11.40;94.40;;;;;;5115046;28;20069;-76
2022/03/17 02:07:37;;;;;;;34.50;18.90;;;11.40;94.30;;;;;;5114325;28;20108;-76
2022/03/17 02:10:04;;;;;;;37.35;20.42;;;11.50;94.40;;;;;;5114082;28;20051;-76
2022/03/17 02:15:14;;;;;;;37.58;20.75;;;11.40;94.40;;;;;;5114199;28;20069;-77
2022/03/17 02:17:40;;;;;;;36.83;20.17;;;11.50;94.30;;;;;;5114175;28;20044;-77
2022/03/17 02:20:09;;;;;;;38.47;21.52;;;11.60;94.20;;;;;;5097150;28;20044;-77
2022/03/17 02:22:42;;;;;;;42.08;20.50;;;11.70;94.20;;;;;;5113769;28;20039;-76
2022/03/17 02:27:52;;;;;;;36.30;20.80;;;11.70;94.00;;;;;;5114222;28;20054;-76
2022/03/17 02:30:20;;;;;;;38.15;21.08;;;11.70;94.20;;;;;;5113953;28;20048;-76
2022/03/17 02:32:47;;;;;;;41.38;20.45;;;11.70;94.20;;;;;;5113536;28;20564;-77
2022/03/17 02:35:17;;;;;;;35.40;19.27;;;11.70;94.30;;;;;;5113916;28;20047;-77
2022/03/17 02:37:42;;;;;;;38.70;19.73;;;11.70;94.20;;;;;;5113850;28;20490;-77
2022/03/17 02:40:10;;;;;;;37.97;21.25;;;11.70;94.20;;;;;;5114041;28;20098;-77
2022/03/17 02:42:37;;;;;;;36.40;20.27;;;11.70;94.20;;;;;;5113754;28;20047;-77
2022/03/17 02:45:05;;;;;;;36.75;20.23;;;11.70;94.20;;;;;;5114171;28;20061;-77
2022/03/17 02:47:31;;;;;;;37.42;20.77;;;11.70;94.30;;;;;;5113718;28;20057;-76
2022/03/17 02:49:57;;;;;;;39.50;20.17;;;11.80;94.30;;;;;;5096764;28;20484;-77
2022/03/17 02:52:24;;;;;;;37.60;19.73;;;11.80;94.10;;;;;;5113104;28;20059;-76
2022/03/17 02:54:51;;;;;;;36.05;20.23;;;11.80;94.30;;;;;;5113474;28;20088;-77
2022/03/17 02:57:17;;;;;;;36.42;20.40;;;11.70;94.30;;;;;;5097079;28;20048;-77
2022/03/17 02:59:43;;;;;;;41.35;21.98;;;11.80;94.30;;;;;;5113041;28;20107;-76
2022/03/17 03:02:09;;;;;;;35.20;20.15;;;11.90;94.20;;;;;;5096529;28;20048;-77
2022/03/17 03:04:34;;;;;;;36.50;20.20;;;12.00;94.30;;;;;;5113429;28;20051;-76
2022/03/17 03:07:06;;;;;;;35.15;20.65;;;11.80;94.30;;;;;;5113377;28;20035;-77
2022/03/17 03:09:34;;;;;;;34.60;20.80;;;11.80;94.40;;;;;;5097055;28;20138;-76
2022/03/17 03:12:00;;;;;;;34.58;20.38;;;11.70;94.40;;;;;;5096118;28;20117;-76
2022/03/17 03:14:27;;;;;;;32.88;19.77;;;11.60;94.50;;;;;;5113202;28;20075;-76
2022/03/17 03:16:53;;;;;;;36.30;21.05;;;11.50;94.70;;;;;;5113010;28;20507;-77
2022/03/17 03:19:19;;;;;;;38.28;21.65;;;11.50;94.70;;;;;;5113439;28;20087;-76
2022/03/17 03:21:44;;;;;;;38.38;20.90;;;11.50;94.80;;;;;;5112834;28;20043;-76
2022/03/17 03:24:12;;;;;;;37.00;21.02;;;11.50;94.80;;;;;;5096906;28;20044;-76
2022/03/17 03:26:38;;;;;;;32.67;20.08;;;11.50;94.90;;;;;;5113190;28;20494;-76
2022/03/17 03:29:06;;;;;;;41.03;21.85;;;11.50;94.90;;;;;;5096251;28;20048;-76
2022/03/17 03:31:34;;;;;;;36.45;21.85;;;11.40;94.90;;;;;;5113095;28;20048;-77
2022/03/17 03:34:00;;;;;;;36.85;20.95;;;11.50;95.00;;;;;;5079747;28;20051;-77
2022/03/17 03:39:10;;;;;;;37.60;22.15;;;11.40;95.00;;;;;;5113403;28;20087;-76
2022/03/17 03:41:36;;;;;;;39.83;20.98;;;11.50;95.10;;;;;;5112995;28;20434;-77
2022/03/17 03:44:02;;;;;;;36.05;21.20;;;11.50;95.10;;;;;;5112955;28;20366;-77
2022/03/17 03:46:28;;;;;;;37.60;22.15;;;11.50;95.00;;;;;;5112972;28;20044;-77
2022/03/17 03:48:54;;;;;;;36.42;20.88;;;11.40;95.10;;;;;;5112871;28;20097;-77
2022/03/17 03:51:20;;;;;;;37.50;21.77;;;11.50;95.20;;;;;;5112569;28;20146;-76
2022/03/17 03:56:31;;;;;;;38.28;21.73;;;11.50;95.10;;;;;;5112716;28;20089;-76
2022/03/17 03:58:59;;;;;;;38.60;22.80;;;11.60;95.10;;;;;;5112786;28;20421;-76
2022/03/17 04:01:25;;;;;;;38.58;21.75;;;11.40;95.30;;;;;;5113206;28;20047;-76
2022/03/17 04:03:52;;;;;;;39.42;21.98;;;11.40;95.30;;;;;;5116851;28;20054;-76
2022/03/17 04:06:18;;;;;;;38.90;22.73;;;11.40;95.40;;;;;;5099857;28;20047;-77
2022/03/17 04:08:44;;;;;;;41.95;22.63;;;11.50;95.50;;;;;;5099834;28;20145;-76
2022/03/17 04:11:09;;;;;;;39.38;22.70;;;11.60;95.80;;;;;;5117283;28;20070;-76
2022/03/17 04:13:35;;;;;;;42.50;23.63;;;11.50;96.10;;;;;;5116924;28;20127;-76
2022/03/17 04:16:01;;;;;;;38.83;22.20;;;11.40;96.50;;;;;;5116235;28;20051;-76
2022/03/17 04:18:26;;;;;;;43.28;24.25;;;11.30;96.80;;;;;;5099626;28;20069;-76
2022/03/17 04:20:52;;;;;;;38.42;22.50;;;11.20;96.90;;;;;;5099121;28;20059;-76
2022/03/17 04:23:18;;;;;;;43.17;24.48;;;11.20;97.10;;;;;;5115943;28;20130;-76
2022/03/17 04:25:43;;;;;;;44.25;25.00;;;11.10;97.20;;;;;;5099387;28;20048;-77
2022/03/17 04:28:09;;;;;;;41.97;24.67;;;11.20;97.60;;;;;;5116519;28;20054;-76
2022/03/17 04:30:36;;;;;;;45.90;25.65;;;11.00;98.10;;;;;;5116066;28;20047;-76
2022/03/17 04:33:02;;;;;;;47.85;26.80;;;10.90;98.50;;;;;;5099106;28;20079;-76
2022/03/17 04:35:28;;;;;;;48.33;28.02;;;10.90;98.70;;;;;;5098316;28;20075;-76
2022/03/17 04:37:54;;;;;;;46.70;27.38;;;10.90;98.80;;;;;;5116024;28;20083;-77
2022/03/17 04:40:19;;;;;;;54.15;30.50;;;11.00;99.10;;;;;;5082442;28;20452;-76
2022/03/17 04:42:45;;;;;;;55.63;29.77;;;11.00;99.20;;;;;;5116011;28;20044;-76
2022/03/17 04:45:11;;;;;;;52.97;30.52;;;11.00;99.30;;;;;;5116072;28;20079;-76
2022/03/17 04:47:36;;;;;;;53.42;30.23;;;10.90;99.60;;;;;;5116000;28;20048;-76
2022/03/17 04:50:03;;;;;;;57.72;31.10;;;10.90;99.80;;;;;;5115892;28;20050;-76
2022/03/17 04:55:12;;;;;;;59.05;31.45;;;10.90;99.90;;;;;;5115630;28;20051;-76
2022/03/17 04:57:38;;;;;;;63.60;33.80;;;10.80;99.90;;;;;;5115946;28;20040;-77
2022/03/17 05:00:06;;;;;;;62.55;34.67;;;10.70;99.90;;;;;;5117823;27;20056;-76
2022/03/17 05:02:32;;;;;;;61.22;33.28;;;10.70;99.90;;;;;;5119208;27;20287;-76
2022/03/17 05:04:58;;;;;;;66.13;35.20;;;10.70;99.90;;;;;;5102120;27;20126;-77
2022/03/17 05:07:23;;;;;;;66.15;35.72;;;10.70;99.90;;;;;;5119323;27;20070;-76
2022/03/17 05:09:49;;;;;;;70.60;37.10;;;10.80;99.90;;;;;;5119103;27;20470;-76
2022/03/17 05:12:16;;;;;;;70.35;37.53;;;10.80;99.90;;;;;;5118645;27;20445;-76
2022/03/17 05:14:41;;;;;;;74.80;39.10;;;10.80;99.90;;;;;;5117836;27;20096;-77
2022/03/17 05:17:07;;;;;;;102.03;44.60;;;10.90;99.90;;;;;;5118833;27;20054;-76
2022/03/17 05:19:34;;;;;;;85.97;41.75;;;11.10;99.90;;;;;;5118800;27;20081;-76
2022/03/17 05:21:59;;;;;;;101.72;43.72;;;10.90;99.90;;;;;;5118250;27;20054;-77
2022/03/17 05:24:25;;;;;;;112.40;47.50;;;11.00;99.90;;;;;;5118649;27;20051;-76
2022/03/17 05:26:53;;;;;;;70.88;32.03;;;10.90;99.90;;;;;;5118738;27;20175;-77
2022/03/17 05:29:18;;;;;;;65.85;28.10;;;10.60;99.90;;;;;;5101965;27;20527;-77
2022/03/17 05:31:44;;;;;;;54.05;23.77;;;10.50;99.90;;;;;;5101505;27;20039;-77
2022/03/17 05:34:10;;;;;;;50.17;22.50;;;10.30;99.90;;;;;;5118378;27;20359;-77
2022/03/17 05:36:35;;;;;;;40.38;18.95;;;10.30;99.90;;;;;;5118583;27;20054;-77
2022/03/17 05:39:02;;;;;;;28.73;15.35;;;10.20;99.90;;;;;;5124736;27;20042;-77
2022/03/17 05:41:27;;;;;;;26.65;14.50;;;9.80;99.90;;;;;;5103720;27;20496;-77
2022/03/17 05:43:53;;;;;;;29.85;15.70;;;9.70;99.90;;;;;;5121779;27;20047;-77
2022/03/17 05:46:20;;;;;;;27.98;14.55;;;9.60;99.90;;;;;;5138946;27;20460;-77
2022/03/17 05:48:45;;;;;;;25.95;14.65;;;9.40;99.90;;;;;;5138982;27;20159;-77
2022/03/17 05:51:11;;;;;;;27.13;14.63;;;9.20;99.90;;;;;;5121098;27;20082;-77
2022/03/17 05:53:37;;;;;;;24.55;14.30;;;9.10;99.90;;;;;;5138787;27;20051;-77
2022/03/17 05:56:02;;;;;;;28.15;15.50;;;9.00;99.90;;;;;;5121354;27;20096;-77
2022/03/17 05:58:29;;;;;;;30.83;16.30;;;9.10;99.90;;;;;;5121605;27;20094;-77
2022/03/17 06:00:54;;;;;;;32.35;16.00;;;9.00;99.90;;;;;;5138285;27;20062;-77
2022/03/17 06:03:20;;;;;;;41.45;17.13;;;9.20;99.90;;;;;;5138576;27;20538;-77
2022/03/17 06:05:46;;;;;;;39.58;19.98;;;9.10;99.90;;;;;;5138298;27;20057;-77
2022/03/17 06:08:11;;;;;;;46.20;22.60;;;9.00;99.90;;;;;;5137901;27;20098;-76
2022/03/17 06:10:38;;;;;;;40.63;20.33;;;9.00;99.90;;;;;;5121687;27;20043;-77
2022/03/17 06:13:06;;;;;;;46.22;20.85;;;9.00;99.90;;;;;;5138067;27;20047;-77
2022/03/17 06:15:35;;;;;;;45.78;19.13;;;9.00;99.90;;;;;;5138100;27;20047;-77
2022/03/17 06:18:03;;;;;;;45.03;18.05;;;8.90;99.90;;;;;;5138796;27;20397;-77
2022/03/17 06:20:31;;;;;;;37.55;16.63;;;8.90;99.90;;;;;;5138218;27;20043;-77
2022/03/17 06:23:00;;;;;;;35.47;14.93;;;9.00;99.90;;;;;;5137663;27;20129;-77
2022/03/17 06:25:28;;;;;;;40.53;16.38;;;9.00;99.90;;;;;;5137759;27;20055;-77
2022/03/17 06:27:54;;;;;;;36.63;15.57;;;9.00;99.90;;;;;;5138028;27;20046;-76
2022/03/17 06:30:22;;;;;;;32.20;13.50;;;8.90;99.90;;;;;;5137706;27;20074;-77
2022/03/17 06:32:50;;;;;;;30.13;14.95;;;8.80;99.90;;;;;;5120849;27;20529;-76
2022/03/17 06:35:24;;;;;;;41.20;13.68;;;8.80;99.90;;;;;;5137739;27;20046;-77
2022/03/17 06:37:55;;;;;;;34.80;14.45;;;8.80;99.90;;;;;;5137998;27;20454;-77
2022/03/17 06:40:22;;;;;;;28.90;13.45;;;8.80;99.90;;;;;;5137565;27;20093;-77
2022/03/17 06:42:49;;;;;;;26.88;11.50;;;8.70;99.90;;;;;;5120807;27;20492;-78
2022/03/17 06:45:16;;;;;;;24.85;9.02;;;8.80;99.90;;;;;;5138606;27;20427;-76
2022/03/17 06:47:42;;;;;;;25.73;8.05;;;8.70;99.90;;;;;;5137887;27;20083;-76
2022/03/17 06:50:10;;;;;;;22.85;7.35;;;8.60;99.90;;;;;;5120615;27;20039;-77
2022/03/17 06:52:36;;;;;;;27.58;9.30;;;8.60;99.90;;;;;;5137237;27;20054;-77
2022/03/17 06:55:02;;;;;;;30.15;8.60;;;8.60;99.90;;;;;;5137700;27;20147;-77
2022/03/17 06:57:28;;;;;;;31.20;8.15;;;8.70;99.90;;;;;;5137289;27;20062;-77
2022/03/17 06:59:54;;;;;;;25.00;6.90;;;8.80;99.90;;;;;;5120608;27;20043;-77
2022/03/17 07:02:19;;;;;;;28.35;6.53;;;8.70;99.90;;;;;;5119976;27;20069;-77
2022/03/17 07:04:46;;;;;;;22.98;6.32;;;8.70;99.90;;;;;;5136954;27;20489;-77
2022/03/17 07:07:12;;;;;;;23.25;5.50;;;8.70;99.90;;;;;;5137384;27;20039;-76
2022/03/17 07:09:38;;;;;;;20.60;5.40;;;8.70;99.90;;;;;;5137097;27;20122;-76
2022/03/17 07:12:05;;;;;;;16.10;4.30;;;8.50;99.90;;;;;;5137414;27;20125;-77
2022/03/17 07:14:31;;;;;;;14.50;3.78;;;8.60;99.90;;;;;;5119744;27;20047;-77
2022/03/17 07:16:56;;;;;;;14.48;3.70;;;8.60;99.90;;;;;;5119798;27;20047;-77
2022/03/17 07:19:22;;;;;;;12.25;3.03;;;8.70;99.90;;;;;;5120048;27;20101;-76
2022/03/17 07:21:48;;;;;;;8.98;2.22;;;8.70;99.90;;;;;;5136846;27;20042;-76
2022/03/17 07:24:15;;;;;;;18.65;2.33;;;8.70;99.90;;;;;;5137142;27;20099;-77
2022/03/17 07:26:40;;;;;;;14.18;2.33;;;8.70;99.90;;;;;;5137704;27;20095;-77
2022/03/17 07:29:07;;;;;;;13.95;2.35;;;8.70;99.90;;;;;;5137131;27;20431;-76
2022/03/17 07:31:33;;;;;;;14.00;2.72;;;8.70;99.90;;;;;;5136874;27;20049;-77
2022/03/17 07:34:01;;;;;;;13.02;2.40;;;8.70;99.90;;;;;;5135830;27;20034;-77
2022/03/17 07:36:28;;;;;;;14.23;2.17;;;8.80;99.90;;;;;;5136359;27;20477;-77
2022/03/17 07:38:58;;;;;;;9.93;2.17;;;8.80;99.90;;;;;;5140984;27;20121;-77
2022/03/17 07:41:24;;;;;;;17.10;2.53;;;8.80;99.90;;;;;;5140414;27;20498;-76
2022/03/17 07:43:50;;;;;;;19.02;2.63;;;8.60;99.90;;;;;;5131406;27;20105;-77
2022/03/17 07:46:17;;;;;;;15.02;2.80;;;8.50;99.90;;;;;;5139430;27;20365;-74
2022/03/17 07:48:43;;;;;;;14.07;2.58;;;8.60;99.90;;;;;;5123963;27;20042;-76
2022/03/17 07:51:09;;;;;;;20.52;2.92;;;8.70;99.90;;;;;;5140738;27;20054;-81
2022/03/17 07:53:35;;;;;;;13.48;2.00;;;8.60;99.90;;;;;;5124283;27;20064;-83
2022/03/17 07:56:02;;;;;;;12.95;2.03;;;8.60;99.90;;;;;;5159340;27;20042;-77
2022/03/17 07:58:28;;;;;;;18.05;1.88;;;8.70;99.90;;;;;;5123772;27;20042;-77
2022/03/17 08:00:56;;;;;;;13.88;1.38;;;8.60;99.90;;;;;;5140768;27;20054;-78
2022/03/17 08:03:23;;;;;;;15.35;1.60;;;8.60;99.90;;;;;;5159316;27;20058;-78
2022/03/17 08:05:49;;;;;;;14.60;1.77;;;8.50;99.90;;;;;;5141757;27;20042;-78
2022/03/17 08:08:19;;;;;;;12.57;1.50;;;8.50;99.90;;;;;;5140819;27;20082;-78
2022/03/17 08:10:45;;;;;;;17.40;1.88;;;8.40;99.90;;;;;;5141107;27;20143;-78
2022/03/17 08:13:11;;;;;;;14.75;1.80;;;8.50;99.90;;;;;;5123687;27;20042;-77
2022/03/17 08:15:39;;;;;;;15.93;1.65;;;8.60;99.90;;;;;;5140538;27;20042;-77
2022/03/17 08:18:08;;;;;;;17.00;1.63;;;8.70;99.90;;;;;;5140726;27;20469;-77
2022/03/17 08:20:41;;;;;;;16.38;1.48;;;8.60;99.90;;;;;;5140673;27;20035;-75
2022/03/17 08:23:08;;;;;;;15.00;1.90;;;8.50;99.90;;;;;;5143174;27;20043;-74
2022/03/17 08:25:35;;;;;;;23.20;2.08;;;8.50;99.90;;;;;;5147252;27;20038;-77
2022/03/17 08:28:03;;;;;;;26.45;2.33;;;8.40;99.90;;;;;;5159989;27;20039;-76
2022/03/17 08:30:38;;;;;;;20.65;2.63;;;8.50;99.90;;;;;;5140591;27;20458;-76
2022/03/17 08:33:03;;;;;;;25.13;2.47;;;8.50;99.80;;;;;;5140568;27;20042;-75
2022/03/17 08:35:29;;;;;;;30.38;2.65;;;8.50;99.80;;;;;;5123068;27;20042;-75
2022/03/17 08:37:57;;;;;;;17.70;2.33;;;8.50;99.60;;;;;;5123504;27;20091;-76
2022/03/17 08:40:22;;;;;;;21.15;2.15;;;8.50;99.70;;;;;;5140203;27;20050;-76
2022/03/17 08:42:48;;;;;;;20.25;2.72;;;8.50;99.60;;;;;;5139920;27;20042;-76
2022/03/17 08:50:44;;;;;;;10.85;1.83;;;8.70;99.20;;;;;;5141414;27;20058;-75
2022/03/17 08:53:10;;;;;;;11.15;1.40;;;8.70;98.80;;;;;;5139615;27;20099;-75
2022/03/17 08:55:37;;;;;;;13.48;2.03;;;8.60;98.30;;;;;;5139920;27;20121;-75
2022/03/17 08:58:06;;;;;;;19.92;1.77;;;8.60;98.50;;;;;;5139849;27;20047;-75
2022/03/17 09:00:34;;;;;;;15.32;1.60;;;8.50;98.40;;;;;;5139797;27;20125;-77
2022/03/17 09:03:04;;;;;;;24.45;2.13;;;8.50;98.40;;;;;;5139797;27;20086;-77
2022/03/17 09:05:32;;;;;;;16.45;1.45;;;8.50;98.30;;;;;;5140006;27;20039;-77
2022/03/17 09:07:59;;;;;;;19.98;2.65;;;8.50;98.10;;;;;;5123011;27;20079;-78
2022/03/17 09:10:25;;;;;;;15.90;1.80;;;8.60;98.20;;;;;;5139475;27;20049;-78
2022/03/17 09:12:57;;;;;;;18.55;2.03;;;8.60;98.10;;;;;;5139668;27;20054;-77
2022/03/17 09:15:24;;;;;;;23.00;2.40;;;8.60;98.20;;;;;;5139228;27;20043;-79
2022/03/17 09:17:50;;;;;;;12.18;1.67;;;8.70;98.20;;;;;;5139735;27;20051;-78
2022/03/17 09:20:16;;;;;;;11.20;1.50;;;8.80;98.00;;;;;;5122260;27;20039;-77
2022/03/17 09:22:43;;;;;;;17.80;2.10;;;8.70;98.00;;;;;;5157522;27;20047;-78
2022/03/17 09:25:10;;;;;;;18.40;2.30;;;8.80;98.00;;;;;;5139245;27;20430;-78
2022/03/17 09:27:36;;;;;;;15.25;1.52;;;8.70;97.80;;;;;;5141254;27;20412;-79
2022/03/17 09:30:02;;;;;;;13.25;1.75;;;8.70;97.70;;;;;;5114923;27;20043;-77
2022/03/17 09:32:28;;;;;;;14.75;1.67;;;8.70;97.90;;;;;;5126277;27;20050;-76
2022/03/17 09:34:53;;;;;;;16.23;1.70;;;8.80;97.70;;;;;;5101228;27;20042;-76
2022/03/17 09:37:19;;;;;;;14.18;1.70;;;8.70;97.50;;;;;;5136995;27;20390;-76
2022/03/17 09:39:45;;;;;;;14.57;1.40;;;8.80;97.70;;;;;;5117950;27;20139;-76
2022/03/17 09:42:19;;;;;;;16.38;1.33;;;8.80;97.70;;;;;;5118726;27;20196;-76
2022/03/17 09:44:47;;;;;;;15.70;1.83;;;8.80;97.70;;;;;;5153239;27;20043;-77
2022/03/17 09:47:18;;;;;;;14.00;3.15;;;8.90;97.70;;;;;;5121679;27;20042;-77
2022/03/17 09:49:47;;;;;;;9.93;1.15;;;9.10;97.90;;;;;;5117876;27;20047;-77
2022/03/17 09:52:15;;;;;;;21.95;2.35;;;9.30;97.80;;;;;;5100635;27;20047;-77
2022/03/17 09:54:51;;;;;;;15.68;1.60;;;9.40;97.70;;;;;;5118003;27;20047;-77
2022/03/17 09:57:18;;;;;;;17.45;2.05;;;9.50;97.70;;;;;;5120519;27;20103;-77
2022/03/17 09:59:45;;;;;;;18.27;2.60;;;9.50;97.30;;;;;;5123884;27;20043;-78
2022/03/17 10:02:17;;;;;;;18.33;1.92;;;9.60;97.30;;;;;;5117226;27;20047;-77
2022/03/17 10:04:44;;;;;;;16.20;2.13;;;9.60;97.30;;;;;;5117828;27;20055;-78
2022/03/17 10:07:18;;;;;;;15.82;2.25;;;9.60;97.20;;;;;;5129269;27;20477;-77
2022/03/17 10:09:45;;;;;;;22.02;1.90;;;9.60;97.20;;;;;;5137848;27;20050;-80
2022/03/17 10:12:12;;;;;;;20.00;1.70;;;9.60;97.10;;;;;;5138019;27;20082;-79
2022/03/17 10:14:43;;;;;;;14.82;2.10;;;9.70;97.20;;;;;;5141321;27;20392;-78
2022/03/17 10:17:31;;;;;;;15.48;1.40;;;9.70;96.60;;;;;;5123198;27;20131;-79
2022/03/17 10:20:17;;;;;;;13.18;1.45;;;9.80;97.00;;;;;;5099869;27;20486;-83
2022/03/17 10:22:51;;;;;;;15.63;1.88;;;9.80;96.80;;;;;;5117082;27;20051;-83
2022/03/17 10:25:22;;;;;;;20.48;2.42;;;10.00;96.40;;;;;;5117000;27;20051;-84
2022/03/17 10:27:49;;;;;;;11.52;1.83;;;10.20;96.30;;;;;;5117334;27;20051;-83
2022/03/17 10:30:41;;;;;;;10.13;1.55;;;10.40;96.30;;;;;;5100366;27;20055;-77
2022/03/17 10:33:18;;;;;;;10.70;1.33;;;10.60;96.20;;;;;;5119046;27;20051;-81
2022/03/17 10:35:46;;;;;;;11.82;1.20;;;10.50;95.70;;;;;;5119102;27;20172;-82
2022/03/17 10:38:17;;;;;;;11.43;1.52;;;10.50;95.60;;;;;;5099215;27;20087;-77
2022/03/17 10:40:44;;;;;;;13.70;1.58;;;10.60;95.40;;;;;;5117079;27;20394;-79
2022/03/17 10:43:33;;;;;;;19.80;1.77;;;10.50;95.90;;;;;;5117475;27;20039;-78
2022/03/17 10:46:07;;;;;;;12.15;1.67;;;10.50;95.60;;;;;;5117527;27;20055;-76
2022/03/17 10:48:34;;;;;;;10.38;1.35;;;10.50;95.80;;;;;;5117176;27;20047;-80
2022/03/17 10:50:59;;;;;;;18.58;1.83;;;10.60;95.40;;;;;;5117311;27;20047;-80
2022/03/17 10:53:30;;;;;;;10.75;1.65;;;10.50;95.60;;;;;;5099702;27;20496;-78
2022/03/17 10:56:13;;;;;;;10.10;1.27;;;10.30;95.70;;;;;;5117005;27;20047;-81
2022/03/17 10:58:43;;;;;;;14.90;1.60;;;10.20;95.60;;;;;;5099966;27;20058;-81
2022/03/17 11:01:09;;;;;;;13.27;1.88;;;10.20;95.80;;;;;;5116354;27;20063;-82
2022/03/17 11:03:35;;;;;;;16.65;1.90;;;10.40;95.40;;;;;;5117150;27;20054;-81
2022/03/17 11:06:03;;;;;;;12.10;1.58;;;10.90;95.20;;;;;;5100916;27;20050;-83
2022/03/17 11:08:31;;;;;;;17.55;2.13;;;11.20;94.80;;;;;;5116970;27;20074;-76
2022/03/17 11:11:00;;;;;;;15.23;1.73;;;11.70;94.90;;;;;;5135048;27;20043;-80
2022/03/17 11:13:26;;;;;;;12.65;1.90;;;11.80;94.30;;;;;;5115123;27;20053;-81
2022/03/17 11:16:12;;;;;;;12.63;2.00;;;12.00;94.50;;;;;;5112343;27;20089;-85
2022/03/17 11:18:40;;;;;;;18.30;2.20;;;12.10;94.10;;;;;;5135052;27;20125;-84
2022/03/17 11:21:19;;;;;;;16.67;1.80;;;12.00;93.80;;;;;;5116663;27;20162;-84
2022/03/17 11:23:56;;;;;;;14.98;1.95;;;11.90;93.90;;;;;;5099754;27;20043;-84
2022/03/17 11:26:23;;;;;;;12.25;1.65;;;11.90;93.60;;;;;;5099811;27;20043;-84
2022/03/17 11:28:50;;;;;;;15.93;1.70;;;11.90;94.20;;;;;;5099168;27;20541;-83
2022/03/17 11:31:19;;;;;;;14.27;1.92;;;11.90;93.50;;;;;;5082824;28;20041;-86
2022/03/17 11:33:46;;;;;;;10.45;1.77;;;12.00;93.30;;;;;;5115990;28;20047;-85
2022/03/17 11:36:21;;;;;;;9.93;1.55;;;11.70;93.70;;;;;;5115777;28;20043;-84
2022/03/17 11:39:00;;;;;;;10.70;2.03;;;11.40;93.60;;;;;;5116181;28;20109;-84
2022/03/17 11:41:27;;;;;;;16.83;1.85;;;11.50;93.40;;;;;;5120084;27;20054;-85
2022/03/17 11:43:53;;;;;;;14.80;2.15;;;11.90;93.50;;;;;;5114858;27;20058;-85
2022/03/17 11:46:21;;;;;;;17.60;2.30;;;12.20;93.30;;;;;;5136153;27;20038;-86
2022/03/17 11:48:52;;;;;;;12.77;1.60;;;12.50;93.30;;;;;;5136764;27;20047;-84
2022/03/17 11:51:19;;;;;;;14.45;1.77;;;12.50;93.40;;;;;;5098873;28;20131;-86
2022/03/17 11:53:51;;;;;;;9.57;1.40;;;12.50;92.60;;;;;;5118683;28;20508;-90
2022/03/17 11:56:38;;;;;;;15.43;1.30;;;12.40;92.40;;;;;;5117155;28;20041;-92
2022/03/17 11:59:08;;;;;;;18.65;2.33;;;12.20;92.70;;;;;;5115841;28;20058;-84
2022/03/17 12:01:42;;;;;;;11.57;2.17;;;12.70;92.40;;;;;;5116805;28;20047;-90
2022/03/17 12:04:20;;;;;;;7.28;1.38;;;12.70;92.30;;;;;;5116771;28;20047;-89
2022/03/17 12:06:53;;;;;;;16.48;1.58;;;13.00;92.10;;;;;;5116678;28;20050;-90
2022/03/17 12:09:31;;;;;;;11.52;1.63;;;13.40;91.50;;;;;;5135603;27;20047;-90
2022/03/17 12:11:57;;;;;;;15.50;1.80;;;13.50;91.40;;;;;;5120065;27;20103;-90
2022/03/17 12:14:24;;;;;;;13.88;1.70;;;13.40;91.70;;;;;;5125976;28;20130;-84
2022/03/17 12:16:58;;;;;;;7.72;1.20;;;13.80;91.30;;;;;;5097180;28;20043;-81
2022/03/17 12:19:27;;;;;;;11.27;1.58;;;14.10;91.50;;;;;;5115284;28;20039;-90
2022/03/17 12:22:01;;;;;;;12.25;1.30;;;14.10;91.00;;;;;;5116577;27;20107;-90
2022/03/17 12:24:45;;;;;;;10.85;1.52;;;14.20;91.10;;;;;;5120565;27;20168;-84
2022/03/17 12:27:22;;;;;;;11.02;1.90;;;14.10;90.90;;;;;;5120161;27;20043;-88
2022/03/17 12:29:55;;;;;;;11.25;1.80;;;14.50;91.10;;;;;;5119886;27;20062;-80
2022/03/17 12:32:22;;;;;;;11.55;2.38;;;14.60;90.60;;;;;;5120030;27;20130;-76
2022/03/17 12:34:51;;;;;;;14.02;1.92;;;14.30;90.80;;;;;;5119829;27;20402;-76
2022/03/17 12:37:18;;;;;;;14.30;2.00;;;13.70;91.10;;;;;;5119693;27;20054;-76
2022/03/17 12:39:51;;;;;;;15.07;2.10;;;13.50;91.00;;;;;;5119371;27;20039;-80
2022/03/17 12:42:24;;;;;;;10.98;1.85;;;13.80;90.90;;;;;;5102570;27;20096;-79
2022/03/17 12:45:07;;;;;;;12.50;1.77;;;13.60;90.60;;;;;;5119622;27;20506;-80
2022/03/17 12:47:36;;;;;;;12.45;1.88;;;13.50;90.80;;;;;;5119269;27;20092;-80
2022/03/17 12:50:06;;;;;;;12.48;1.55;;;13.40;91.10;;;;;;5119238;27;20118;-89
2022/03/17 12:52:33;;;;;;;7.78;1.55;;;13.30;91.40;;;;;;5119478;27;20100;-86
2022/03/17 12:55:01;;;;;;;10.65;1.48;;;13.20;90.90;;;;;;5119258;27;20035;-86
2022/03/17 12:57:29;;;;;;;12.07;1.30;;;13.50;91.00;;;;;;5102270;27;20054;-85
2022/03/17 12:59:56;;;;;;;12.73;1.70;;;13.60;90.40;;;;;;5102168;27;20047;-85